• Join FlightAware (Why Join?)
  • Login
  • US Flag 
04:27AM EDT


 

Airport Tracker/Info


-or-


 

Live Flight TrackerFlight Track Log ✈ SWA484 ✈ 30-Jul-2013 ✈ KBNA - KSAN

Flight Track Log - Related Links

Times and Time Zones

All times are in EDT time to prevent confusion due to time zone crossing. See the SWA484 flight status page for this flight to view local times or setup timezone preferences in your user account.

Time Position Orientation Groundspeed Altitude Reporting Facility
EDT Latitude Longitude Course Direction KTS MPH feet Rate Location/Type
04:58PM 36.2167 -86.6833 357° North 255 293 3,600  Level Nashville TRACON
04:59PM 36.2333 -86.7667 284° West 279 321 6,700 3,180 Climbing Nashville TRACON
04:59PM 36.2311 -86.8217 267° West 269 310 8,500 2,520 Climbing Memphis Center
05:00PM 36.2378 -86.9064 276° West 294 338 10,600 2,040 Climbing Memphis Center
05:01PM 36.2511 -87.0164 279° West 322 371 12,600 2,400 Climbing Memphis Center
05:02PM 36.2625 -87.1344 277° West 342 394 15,500 2,640 Climbing Memphis Center
05:03PM 36.2786 -87.2675 279° West 356 410 17,900 2,340 Climbing Memphis Center
05:04PM 36.2983 -87.3931 281° West 369 425 20,200 2,280 Climbing Memphis Center
05:05PM 36.3136 -87.5214 278° West 375 432 22,500 1,800 Climbing Memphis Center
05:06PM 36.3083 -87.6581 267° West 384 442 23,900 1,500 Climbing Memphis Center
05:07PM 36.3011 -87.7972 266° West 403 464 25,500 1,500 Climbing Memphis Center
05:08PM 36.2956 -87.9392 267° West 408 470 26,900 1,260 Climbing Memphis Center
05:09PM 36.2858 -88.0861 265° West 419 482 28,100 1,140 Climbing Memphis Center
05:10PM 36.2778 -88.2306 266° West 425 489 29,200 1,320 Climbing Memphis Center
05:11PM 36.2700 -88.3825 266° West 431 496 30,800 1,500 Climbing Memphis Center
05:12PM 36.2619 -88.5319 266° West 441 507 32,200 1,440 Climbing Memphis Center
05:13PM 36.2536 -88.6842 266° West 441 507 33,700 900 Climbing Memphis Center
05:14PM 36.2447 -88.8131 265° West 441 507 34,000 420 Climbing Memphis Center
05:15PM 36.2361 -88.9622 266° West 441 507 34,600 960 Climbing Memphis Center
05:16PM 36.2272 -89.1067 266° West 441 507 36,000 660 Climbing Memphis Center
05:17PM 36.2161 -89.2508 265° West 435 501 36,000  Level Memphis Center
05:18PM 36.2050 -89.4028 265° West 435 501 36,000  Level Memphis Center
05:19PM 36.1997 -89.5467 267° West 435 501 36,000  Level Memphis Center
05:20PM 36.1922 -89.6908 266° West 429 494 36,000 360 Level Memphis Center
05:21PM 36.1825 -89.8350 265° West 424 488 36,800 900 Climbing Memphis Center
05:22PM 36.1747 -89.9764 266° West 424 488 37,800 600 Climbing Memphis Center
05:23PM 36.1667 -90.1206 266° West 424 488 38,000 60 Climbing Memphis Center
05:24PM 36.1544 -90.2772 265° West 424 488 38,000  Level Memphis Center
05:25PM 36.1461 -90.4211 266° West 424 488 38,000  Level Memphis Center
05:26PM 36.1356 -90.5625 265° West 424 488 38,000  Level Memphis Center
05:27PM 36.1247 -90.7064 265° West 419 482 38,000  Level Memphis Center
05:28PM 36.1139 -90.8450 265° West 424 488 38,000  Level Memphis Center
05:29PM 36.1069 -90.9889 267° West 419 482 38,000  Level Memphis Center
05:30PM 36.1144 -91.1278 274° West 414 476 38,000  Level Memphis Center
05:31PM 36.1178 -91.2667 272° West 414 476 38,000  Level Memphis Center
05:32PM 36.1231 -91.4081 273° West 414 476 38,000  Level Memphis Center
05:33PM 36.1258 -91.5467 271° West 409 471 38,000  Level Memphis Center
05:34PM 36.1328 -91.6856 274° West 409 471 38,000  Level Memphis Center
05:35PM 36.1356 -91.8219 271° West 404 465 38,000  Level Memphis Center
05:36PM 36.1381 -91.9581 271° West 404 465 38,000  Level Memphis Center
05:37PM 36.1428 -92.0714 273° West 404 465 38,000  Level Memphis Center
05:38PM 36.1531 -92.2206 275° West 404 465 38,000  Level Memphis Center
05:39PM 36.1531 -92.3594 270° West 404 465 38,000  Level Memphis Center
05:40PM 36.1592 -92.4983 273° West 404 465 38,000  Level Memphis Center
05:41PM 36.1608 -92.6397 271° West 404 465 38,000  Level Memphis Center
05:42PM 36.1639 -92.7967 271° West 417 480 38,000  Level Memphis Center
05:43PM 36.1694 -92.9408 273° West 417 480 38,000  Level Memphis Center
05:44PM 36.1706 -93.0875 271° West 424 488 38,000  Level Memphis Center
05:45PM 36.1736 -93.2239 272° West 419 482 38,000  Level Memphis Center
05:46PM 36.1767 -93.3653 272° West 419 482 38,000  Level Memphis Center
05:47PM 36.1794 -93.5069 271° West 419 482 38,000  Level Memphis Center
05:48PM 36.1819 -93.6458 271° West 419 482 38,000  Level Memphis Center
05:49PM 36.1850 -93.7719 272° West 419 482 38,000  Level Memphis Center
05:50PM 36.1872 -93.9161 271° West 419 482 38,000  Level Memphis Center
05:51PM 36.1892 -94.0600 271° West 419 482 38,000  Level Memphis Center
05:53PM 36.1928 -94.3731 271° West 420 483 38,000  Level Kansas City Center
05:54PM 36.1939 -94.5175 271° West 420 483 38,000  Level Kansas City Center
05:55PM 36.1936 -94.6619 270° West 419 482 38,000  Level Kansas City Center
05:56PM 36.1947 -94.8050 271° West 417 480 38,000  Level Kansas City Center
05:58PM 36.1947 -94.9486 270° West 415 478 38,000  Level Kansas City Center
05:59PM 36.1953 -95.1108 270° West 411 473 38,000  Level Kansas City Center
06:00PM 36.1944 -95.2506 270° West 409 471 38,000  Level Kansas City Center
06:01PM 36.1939 -95.3931 270° West 414 476 38,000  Level Kansas City Center
06:02PM 36.1956 -95.5372 271° West 418 481 38,000  Level Kansas City Center
06:03PM 36.1961 -95.6792 270° West 415 478 38,000  Level Kansas City Center
06:04PM 36.1897 -95.8406 267° West 419 482 38,000  Level Kansas City Center
06:05PM 36.1767 -95.9836 264° West 419 482 38,000  Level Kansas City Center
06:06PM 36.1647 -96.1261 264° West 416 479 38,000  Level Kansas City Center
06:07PM 36.1528 -96.2686 264° West 416 479 38,000  Level Kansas City Center
06:08PM 36.1386 -96.4103 263° West 416 479 38,000  Level Kansas City Center
06:09PM 36.1228 -96.5822 264° West 418 481 38,000  Level Kansas City Center
06:10PM 36.1097 -96.7236 264° West 416 479 38,000  Level Kansas City Center
06:11PM 36.0964 -96.8717 264° West 422 486 38,000  Level Kansas City Center
06:12PM 36.0811 -97.0131 262° West 420 483 38,000  Level Kansas City Center
06:13PM 36.0678 -97.1547 263° West 419 482 38,000  Level Kansas City Center
06:14PM 36.0533 -97.2953 263° West 417 480 38,000  Level Kansas City Center
06:15PM 36.0361 -97.4661 263° West 419 482 38,000  Level Kansas City Center
06:16PM 36.0225 -97.6086 263° West 420 483 38,000  Level Kansas City Center
06:17PM 36.0067 -97.7483 262° West 416 479 38,000  Level Kansas City Center
06:18PM 35.9928 -97.8897 263° West 417 480 38,000  Level Kansas City Center
06:19PM 35.9772 -98.0308 262° West 418 481 38,000  Level Kansas City Center
06:20PM 35.9600 -98.1864 262° West 420 483 38,000  Level Kansas City Center
06:21PM 35.9444 -98.3289 262° West 420 483 38,000  Level Kansas City Center
06:22PM 35.9289 -98.4725 262° West 420 483 38,000  Level Kansas City Center
06:23PM 35.9117 -98.6153 262° West 421 484 38,000  Level Kansas City Center
06:24PM 35.8939 -98.7700 262° West 421 484 38,000  Level Kansas City Center
06:25PM 35.8775 -98.9117 262° West 419 482 38,000  Level Kansas City Center
06:26PM 35.8561 -99.0811 261° West 418 481 38,000  Level Kansas City Center
06:27PM 35.8381 -99.2231 261° West 421 484 38,000  Level Kansas City Center
06:29PM 35.8253 -99.3647 264° West 418 481 38,000  Level Kansas City Center
06:30PM 35.8064 -99.5078 261° West 417 480 38,000  Level Kansas City Center
06:31PM 35.7900 -99.6492 262° West 416 479 38,000  Level Kansas City Center
06:32PM 35.7731 -99.7906 262° West 416 479 38,000  Level Kansas City Center
06:33PM 35.7550 -99.9319 261° West 417 480 38,000  Level Kansas City Center
06:33PM 35.7425 -100.0442 262° West 416 479 38,000  Level Albuquerque Center
06:34PM 35.7239 -100.1869 261° West 420 483 38,000  Level Albuquerque Center
06:35PM 35.7058 -100.3286 261° West 420 483 38,000  Level Albuquerque Center
06:36PM 35.6878 -100.4700 261° West 418 481 38,000  Level Albuquerque Center
06:37PM 35.6733 -100.6131 263° West 419 482 38,000  Level Albuquerque Center
06:38PM 35.6517 -100.7581 260° West 420 483 38,000  Level Albuquerque Center
06:39PM 35.6336 -100.8981 261° West 417 480 38,000  Level Albuquerque Center
06:40PM 35.6139 -101.0378 260° West 417 480 38,000  Level Albuquerque Center
06:41PM 35.5958 -101.1781 261° West 418 481 38,000  Level Albuquerque Center
06:43PM 35.5728 -101.3464 260° West 418 481 38,000  Level Albuquerque Center
06:44PM 35.5547 -101.4872 261° West 420 483 38,000  Level Albuquerque Center
06:45PM 35.5358 -101.6292 261° West 424 488 38,000  Level Albuquerque Center
06:46PM 35.5153 -101.7767 260° West 426 490 38,000  Level Albuquerque Center
06:47PM 35.4981 -101.9136 261° West 423 487 38,000  Level Albuquerque Center
06:48PM 35.4717 -102.0803 259° West 427 491 38,000  Level Albuquerque Center
06:49PM 35.4511 -102.2203 260° West 423 487 38,000  Level Albuquerque Center
06:50PM 35.4300 -102.3608 260° West 423 487 38,000  Level Albuquerque Center
06:51PM 35.4100 -102.5017 260° West 422 486 38,000  Level Albuquerque Center
06:52PM 35.3889 -102.6508 260° West 421 484 38,000  Level Albuquerque Center
06:53PM 35.3675 -102.7928 260° West 420 483 38,000  Level Albuquerque Center
06:54PM 35.3467 -102.9350 260° West 420 483 38,000  Level Albuquerque Center
06:55PM 35.3250 -103.0792 260° West 425 489 38,000  Level Albuquerque Center
06:56PM 35.3036 -103.2222 260° West 424 488 38,000  Level Albuquerque Center
06:57PM 35.2814 -103.3644 259° West 423 487 38,000  Level Albuquerque Center
06:58PM 35.2594 -103.5056 259° West 421 484 38,000  Level Albuquerque Center
06:59PM 35.2372 -103.6478 259° West 420 483 38,000  Level Albuquerque Center
07:00PM 35.2147 -103.7897 259° West 422 486 38,000  Level Albuquerque Center
07:01PM 35.1903 -103.9439 259° West 423 487 38,000  Level Albuquerque Center
07:02PM 35.1667 -104.0875 259° West 429 494 38,000  Level Albuquerque Center
07:03PM 35.1442 -104.2283 259° West 424 488 38,000  Level Albuquerque Center
07:04PM 35.1239 -104.3703 260° West 424 488 38,000  Level Albuquerque Center
07:05PM 35.0989 -104.5108 258° West 423 487 38,000  Level Albuquerque Center
07:06PM 35.0742 -104.6564 258° West 426 490 38,000  Level Albuquerque Center
07:07PM 35.0503 -104.7978 258° West 423 487 38,000  Level Albuquerque Center
07:08PM 35.0239 -104.9625 259° West 421 484 38,000  Level Albuquerque Center
07:09PM 34.9994 -105.1036 258° West 422 486 38,000  Level Albuquerque Center
07:10PM 34.9756 -105.2442 258° West 420 483 38,000  Level Albuquerque Center
07:11PM 34.9517 -105.3844 258° West 420 483 38,000  Level Albuquerque Center
07:12PM 34.9275 -105.5247 258° West 420 483 38,000  Level Albuquerque Center
07:13PM 34.9033 -105.6586 258° West 419 482 38,000  Level Albuquerque Center
07:14PM 34.8792 -105.7981 258° West 419 482 38,000  Level Albuquerque Center
07:15PM 34.8550 -105.9364 258° West 418 481 38,000  Level Albuquerque Center
07:16PM 34.8303 -106.0761 258° West 419 482 38,000  Level Albuquerque Center
07:17PM 34.8050 -106.2158 258° West 420 483 38,000  Level Albuquerque Center
07:18PM 34.7806 -106.3561 258° West 422 486 38,000  Level Albuquerque Center
07:19PM 34.7547 -106.4958 257° West 422 486 38,000  Level Albuquerque Center
07:20PM 34.7239 -106.6647 258° West 425 489 38,000 -60 Level Albuquerque Center
07:21PM 34.6989 -106.8036 258° West 421 484 37,900  Descending Albuquerque Center
07:22PM 34.6742 -106.9450 258° West 423 487 38,000  Climbing Albuquerque Center
07:23PM 34.6483 -107.0831 257° West 421 484 38,000  Level Albuquerque Center
07:24PM 34.6214 -107.2319 258° West 421 484 38,000  Level Albuquerque Center
07:25PM 34.5953 -107.3694 257° West 420 483 38,000  Level Albuquerque Center
07:26PM 34.5664 -107.4939 254° West 420 483 38,000  Level Albuquerque Center
07:28PM 34.5408 -107.6344 258° West 425 489 38,000  Level Albuquerque Center
07:29PM 34.5150 -107.7736 257° West 425 489 38,000  Level Albuquerque Center
07:30PM 34.4894 -107.9125 257° West 422 486 38,000  Level Albuquerque Center
07:31PM 34.4622 -108.0531 257° West 426 490 38,000  Level Albuquerque Center
07:32PM 34.4297 -108.2200 257° West 426 490 38,000  Level Albuquerque Center
07:33PM 34.4025 -108.3594 257° West 425 489 38,000  Level Albuquerque Center
07:34PM 34.3753 -108.4989 257° West 427 491 38,000  Level Albuquerque Center
07:35PM 34.3492 -108.6306 257° West 423 487 38,000  Level Albuquerque Center
07:36PM 34.3167 -108.7872 256° West 426 490 38,000  Level Albuquerque Center
07:37PM 34.2900 -108.9206 256° West 427 491 38,000  Level Albuquerque Center
07:38PM 34.2581 -109.0756 256° West 425 489 38,000  Level Albuquerque Center
07:39PM 34.2333 -109.1986 256° West 427 491 38,000  Level Albuquerque Center
07:40PM 34.2053 -109.3356 256° West 426 490 38,000  Level Albuquerque Center
07:41PM 34.1714 -109.4961 256° West 424 488 38,000  Level Albuquerque Center
07:42PM 34.1442 -109.6264 256° West 421 484 38,000  Level Albuquerque Center
07:43PM 34.1122 -109.7806 256° West 422 486 38,000  Level Albuquerque Center
07:44PM 34.0847 -109.9128 256° West 424 488 38,000  Level Albuquerque Center
07:45PM 34.0567 -110.0453 256° West 425 489 38,000  Level Albuquerque Center
07:46PM 34.0267 -110.1847 255° West 427 491 38,000  Level Albuquerque Center
07:47PM 33.9956 -110.3242 255° West 430 495 38,000  Level Albuquerque Center
07:48PM 33.9483 -110.5369 255° West 427 491 38,000  Level Los Angeles Center
07:49PM 33.9317 -110.6181 256° West 425 489 38,000  Level Albuquerque Center
07:50PM 33.9019 -110.7544 255° West 422 486 38,000  Level Albuquerque Center
07:51PM 33.8708 -110.8900 255° West 421 484 38,000  Level Albuquerque Center
07:52PM 33.8414 -111.0269 256° West 422 486 38,000  Level Albuquerque Center
07:53PM 33.8111 -111.1639 255° West 424 488 38,000  Level Albuquerque Center
07:54PM 33.7794 -111.3014 255° West 425 489 38,000  Level Albuquerque Center
07:55PM 33.7483 -111.4386 255° West 423 487 38,000  Level Albuquerque Center
07:56PM 33.7164 -111.5767 254° West 424 488 38,000  Level Albuquerque Center
07:57PM 33.6789 -111.7436 255° West 426 490 38,000  Level Albuquerque Center
07:58PM 33.6461 -111.8819 254° West 427 491 38,000  Level Albuquerque Center
07:59PM 33.6147 -112.0192 255° West 425 489 38,000  Level Albuquerque Center
08:00PM 33.5825 -112.1553 254° West 424 488 38,000  Level Albuquerque Center
08:01PM 33.5511 -112.2908 255° West 422 486 38,000  Level Albuquerque Center
08:02PM 33.5194 -112.4267 254° West 422 486 38,000  Level Albuquerque Center
08:03PM 33.4878 -112.5603 254° West 418 481 38,000  Level Albuquerque Center
08:04PM 33.4550 -112.7011 254° West 421 484 38,000  Level Albuquerque Center
08:05PM 33.4228 -112.8364 254° West 423 487 38,000  Level Albuquerque Center
08:06PM 33.3897 -112.9711 254° West 423 487 38,000  Level Albuquerque Center
08:07PM 33.3506 -113.1336 254° West 425 489 38,000 -480 Level Albuquerque Center
08:08PM 33.3172 -113.2700 254° West 429 494 37,100 -960 Descending Albuquerque Center
08:10PM 33.2844 -113.4053 254° West 427 491 36,100 -960 Descending Albuquerque Center
08:11PM 33.2519 -113.5422 254° West 430 495 35,200 -960 Descending Albuquerque Center
08:12PM 33.2172 -113.6800 253° West 434 499 34,200 -600 Descending Albuquerque Center
08:13PM 33.1831 -113.8183 254° West 436 502 34,000 -120 Descending Albuquerque Center
08:14PM 33.1419 -113.9833 253° West 436 502 34,000  Level Albuquerque Center
08:15PM 33.1067 -114.1200 253° West 434 499 34,000  Level Albuquerque Center
08:16PM 33.0717 -114.2583 253° West 435 501 34,000  Level Albuquerque Center
08:17PM 33.0364 -114.3964 253° West 437 503 34,000  Level Albuquerque Center
08:17PM 33.0144 -114.4878 254° West 438 504 34,000 -240 Level Los Angeles Center
08:18PM 32.9786 -114.6253 253° West 436 502 33,600 -780 Descending Los Angeles Center
08:19PM 32.9369 -114.7906 253° West 435 501 32,400 -1,080 Descending Los Angeles Center
08:21PM 32.9017 -114.9278 253° West 435 501 31,400 -1,020 Descending Los Angeles Center
08:22PM 32.8656 -115.0611 252° West 425 489 30,400 -1,020 Descending Los Angeles Center
08:23PM 32.8317 -115.1933 253° West 420 483 29,300 -1,020 Descending Los Angeles Center
08:24PM 32.7969 -115.3233 252° West 414 476 28,300 -1,080 Descending Los Angeles Center
08:25PM 32.7631 -115.4519 253° West 410 472 27,100 -1,380 Descending Los Angeles Center
08:26PM 32.7511 -115.6036 265° West 383 441 25,500 -1,680 Descending Los Angeles Center
08:27PM 32.7533 -115.7242 271° West 367 422 23,700 -1,800 Descending Los Angeles Center
08:28PM 32.7572 -115.8425 272° West 360 414 21,800 -2,040 Descending Los Angeles Center
08:29PM 32.7592 -115.9561 271° West 348 400 19,600 -2,340 Descending Los Angeles Center
08:30PM 32.7614 -116.0728 271° West 351 404 17,000 -2,400 Descending Los Angeles Center
08:31PM 32.7644 -116.1900 272° West 354 407 14,700 -2,160 Descending Los Angeles Center
08:32PM 32.7650 -116.3078 270° West 354 407 12,600 -1,860 Descending Los Angeles Center
08:33PM 32.7472 -116.4158 259° West 338 389 10,900 -1,320 Descending Los Angeles Center
08:34PM 32.7108 -116.5250 248° West 293 337 9,700 -1,320 Descending Los Angeles Center
08:35PM 32.6725 -116.6303 247° West 287 330 8,000 -1,320 Descending Los Angeles Center
08:36PM 32.6428 -116.7144 247° West 280 322 7,000 -540 Descending Los Angeles Center
08:37PM 32.6353 -116.7875 263° West 230 265 6,900 -720 Descending Los Angeles Center
08:38PM 32.6519 -116.8578 286° West 221 254 5,600 -1,320 Descending Los Angeles Center
08:39PM 32.6667 -116.9167 287° West 223 257 4,700 -1,260 Descending Southern California TRACON
08:40PM 32.6833 -116.9833 287° West 207 238 3,600 -1,140 Descending Southern California TRACON
08:41PM 32.7000 -117.0333 292° West 173 199 2,500 -900 Descending Southern California TRACON
08:42PM 32.7000 -117.0833 270° West 142 163 1,800 -780 Descending Southern California TRACON
08:43PM 32.7167 -117.1333 292° West 132 152 1,000 -780 Descending Southern California TRACON
08:43PM 32.7214 -117.1433 299° West 134 154 700 -540 Descending Los Angeles Center
08:44PM 32.7317 -117.1889 285° West 131 151 200 -540 Descending Los Angeles Center
08:46PM 32.7333 -117.1833 281° West  Level FlightAware Approximate
08:53PM 32.7336 -117.1897 281° West  Level Estimated